Time;durP1;ratioP1;P1;durP2;ratioP2;P2;SDS_P1;SDS_P2;PMS_P1;PMS_P2;Temp;Humidity;BMP_temperature;BMP_pressure;BME280_temperature;BME280_humidity;BME280_pressure;Samples;Min_cycle;Max_cycle;Signal;HPM_P1;HPM_P2
2021/10/26 00:00:49;;;;;;;10.80;7.55;;;;;18.40;101549.00;;;;5042643;28;20455;-83
2021/10/26 00:03:16;;;;;;;9.98;7.43;;;;;18.40;101554.00;;;;5028464;28;20200;-82
2021/10/26 00:05:45;;;;;;;13.52;7.80;;;;;18.40;101549.00;;;;5035741;28;20243;-83
2021/10/26 00:08:12;;;;;;;9.40;7.75;;;;;18.40;101552.00;;;;5042324;28;20216;-83
2021/10/26 00:10:39;;;;;;;11.30;7.75;;;;;18.40;101553.00;;;;5028466;28;20204;-82
2021/10/26 00:13:07;;;;;;;10.82;7.30;;;;;18.40;101565.00;;;;5033740;28;20199;-82
2021/10/26 00:15:34;;;;;;;8.05;6.20;;;;;18.40;101563.00;;;;5028763;28;20208;-81
2021/10/26 00:18:01;;;;;;;9.20;6.63;;;;;18.40;101569.00;;;;5027534;28;20192;-82
2021/10/26 00:20:30;;;;;;;11.07;7.40;;;;;18.40;101563.00;;;;5038280;28;20206;-82
2021/10/26 00:22:58;;;;;;;9.80;6.72;;;;;18.40;101562.00;;;;5035649;28;20689;-82
2021/10/26 00:25:26;;;;;;;8.63;6.75;;;;;18.40;101570.00;;;;5028130;28;20195;-83
2021/10/26 00:27:54;;;;;;;8.75;6.82;;;;;18.40;101571.00;;;;5027787;28;20220;-82
2021/10/26 00:30:21;;;;;;;10.13;7.32;;;;;18.40;101567.00;;;;5028701;28;20204;-82
2021/10/26 00:32:49;;;;;;;8.77;6.47;;;;;18.40;101567.00;;;;5031328;28;20195;-82
2021/10/26 00:35:16;;;;;;;10.70;6.32;;;;;18.50;101574.00;;;;5040184;28;20194;-82
2021/10/26 00:37:44;;;;;;;9.43;6.55;;;;;18.50;101575.00;;;;5028212;28;20192;-82
2021/10/26 00:40:15;;;;;;;9.60;6.65;;;;;18.40;101584.00;;;;5032352;28;20192;-83
2021/10/26 00:42:42;;;;;;;9.45;6.80;;;;;18.50;101587.00;;;;5037479;28;20231;-82
2021/10/26 00:45:10;;;;;;;10.45;6.90;;;;;18.50;101580.00;;;;5029415;28;20215;-82
2021/10/26 00:47:37;;;;;;;8.30;6.63;;;;;18.50;101585.00;;;;5028023;28;20338;-82
2021/10/26 00:50:06;;;;;;;9.63;6.70;;;;;18.50;101587.00;;;;5028678;28;20192;-82
2021/10/26 00:52:33;;;;;;;9.90;7.00;;;;;18.50;101587.00;;;;5027403;28;20697;-83
2021/10/26 00:55:01;;;;;;;12.02;6.55;;;;;18.50;101588.00;;;;5027882;28;20207;-81
2021/10/26 00:57:29;;;;;;;9.45;7.35;;;;;18.50;101596.00;;;;5033415;28;20196;-82
2021/10/26 00:59:57;;;;;;;8.88;6.32;;;;;18.50;101595.00;;;;5027925;28;20197;-82
2021/10/26 01:02:24;;;;;;;10.18;7.50;;;;;18.50;101589.00;;;;5037588;28;20199;-82
2021/10/26 01:04:51;;;;;;;9.23;6.93;;;;;18.50;101590.00;;;;5029119;28;20223;-82
2021/10/26 01:07:19;;;;;;;8.85;7.72;;;;;18.50;101597.00;;;;5031639;28;20230;-81
2021/10/26 01:09:47;;;;;;;8.75;6.45;;;;;18.50;101597.00;;;;5033384;28;20752;-82
2021/10/26 01:12:14;;;;;;;9.30;7.10;;;;;18.50;101603.00;;;;5047066;28;20200;-81
2021/10/26 01:14:43;;;;;;;8.55;6.75;;;;;18.50;101600.00;;;;5043177;28;20203;-82
2021/10/26 01:17:12;;;;;;;9.85;7.60;;;;;18.50;101599.00;;;;5041917;28;20556;-82
2021/10/26 01:19:45;;;;;;;9.95;7.43;;;;;18.50;101596.00;;;;5033761;28;20207;-82
2021/10/26 01:22:14;;;;;;;9.63;6.95;;;;;18.50;101596.00;;;;5040666;28;20204;-82
2021/10/26 01:24:42;;;;;;;11.05;6.78;;;;;18.50;101603.00;;;;5031323;28;20231;-83
2021/10/26 01:27:10;;;;;;;10.18;7.38;;;;;18.50;101597.00;;;;5038313;28;20223;-83
2021/10/26 01:29:38;;;;;;;12.52;7.45;;;;;18.50;101603.00;;;;5043808;28;20821;-82
2021/10/26 01:32:07;;;;;;;10.55;7.22;;;;;18.50;101597.00;;;;5041688;28;20296;-82
2021/10/26 01:34:35;;;;;;;9.93;7.25;;;;;18.50;101599.00;;;;5030853;28;20199;-82
2021/10/26 01:37:05;;;;;;;12.73;7.90;;;;;18.50;101591.00;;;;5033410;28;20681;-83
2021/10/26 01:39:34;;;;;;;10.45;7.60;;;;;18.50;101595.00;;;;5031417;28;20217;-82
2021/10/26 01:42:02;;;;;;;10.50;7.68;;;;;18.50;101595.00;;;;5035806;28;20231;-83
2021/10/26 01:44:30;;;;;;;11.27;8.23;;;;;18.50;101596.00;;;;5031309;28;20213;-82
2021/10/26 01:46:58;;;;;;;11.13;7.93;;;;;18.50;101590.00;;;;5030560;28;20569;-82
2021/10/26 01:49:25;;;;;;;10.30;8.27;;;;;18.50;101596.00;;;;5030708;28;20254;-82
2021/10/26 01:51:53;;;;;;;12.45;8.57;;;;;18.50;101591.00;;;;5031354;28;20196;-82
2021/10/26 01:54:22;;;;;;;10.05;7.70;;;;;18.50;101592.00;;;;5031386;28;20204;-82
2021/10/26 01:56:50;;;;;;;11.77;8.52;;;;;18.50;101596.00;;;;5037185;28;20208;-82
2021/10/26 01:59:17;;;;;;;12.75;8.52;;;;;18.50;101595.00;;;;5046070;28;20266;-83
2021/10/26 02:01:45;;;;;;;11.85;8.40;;;;;18.50;101598.00;;;;5031175;28;20200;-82
2021/10/26 02:04:12;;;;;;;10.60;8.52;;;;;18.50;101594.00;;;;5035032;28;20981;-82
2021/10/26 02:06:39;;;;;;;13.27;8.80;;;;;18.50;101590.00;;;;5029826;28;20673;-82
2021/10/26 02:09:06;;;;;;;14.82;9.13;;;;;18.50;101592.00;;;;5043564;28;20219;-82
2021/10/26 02:11:36;;;;;;;14.32;9.77;;;;;18.50;101588.00;;;;5038204;28;20204;-82
2021/10/26 02:14:03;;;;;;;11.82;8.38;;;;;18.50;101584.00;;;;5047047;28;20207;-82
2021/10/26 02:16:31;;;;;;;12.63;9.27;;;;;18.50;101586.00;;;;5034091;28;20195;-83
2021/10/26 02:18:58;;;;;;;12.27;9.65;;;;;18.50;101593.00;;;;5030514;28;20208;-82
2021/10/26 02:21:25;;;;;;;11.15;8.40;;;;;18.50;101602.00;;;;5031352;28;20215;-83
2021/10/26 02:23:53;;;;;;;13.18;9.10;;;;;18.50;101598.00;;;;5048204;28;20203;-82
2021/10/26 02:26:20;;;;;;;13.02;9.13;;;;;18.50;101594.00;;;;5050275;28;20207;-82
2021/10/26 02:28:48;;;;;;;13.70;9.05;;;;;18.50;101594.00;;;;5031191;28;20224;-83
2021/10/26 02:31:16;;;;;;;12.32;9.45;;;;;18.50;101598.00;;;;5049017;28;20203;-82
2021/10/26 02:33:43;;;;;;;10.65;8.18;;;;;18.50;101601.00;;;;5031328;28;20270;-82
2021/10/26 02:36:11;;;;;;;11.85;9.32;;;;;18.50;101602.00;;;;5031941;28;20197;-81
2021/10/26 02:38:38;;;;;;;11.10;8.68;;;;;18.50;101612.00;;;;5049021;28;20850;-82
2021/10/26 02:41:05;;;;;;;12.45;8.50;;;;;18.50;101608.00;;;;5037665;28;20232;-82
2021/10/26 02:43:33;;;;;;;12.02;9.00;;;;;18.50;101607.00;;;;5043041;28;20207;-83
2021/10/26 02:46:02;;;;;;;11.52;7.95;;;;;18.40;101615.00;;;;5039225;28;20203;-82
2021/10/26 02:48:30;;;;;;;11.50;8.93;;;;;18.40;101617.00;;;;5039990;28;20227;-82
2021/10/26 02:50:57;;;;;;;10.10;7.90;;;;;18.40;101615.00;;;;5040002;28;20890;-82
2021/10/26 02:53:26;;;;;;;12.30;8.30;;;;;18.40;101615.00;;;;5030766;28;20697;-82
2021/10/26 02:55:53;;;;;;;10.20;7.70;;;;;18.40;101621.00;;;;5031520;28;20748;-81
2021/10/26 02:58:21;;;;;;;14.07;8.35;;;;;18.30;101628.00;;;;5030228;28;20188;-82
2021/10/26 03:00:48;;;;;;;10.73;7.45;;;;;18.30;101627.00;;;;5035345;28;20208;-82
2021/10/26 03:03:17;;;;;;;13.90;7.95;;;;;18.30;101631.00;;;;5031751;28;20188;-82
2021/10/26 03:05:44;;;;;;;10.95;7.82;;;;;18.30;101634.00;;;;5049482;28;20208;-82
2021/10/26 03:08:12;;;;;;;12.90;7.03;;;;;18.30;101633.00;;;;5039109;28;20312;-82
2021/10/26 03:10:40;;;;;;;9.63;7.07;;;;;18.30;101634.00;;;;5029751;28;20188;-81
2021/10/26 03:13:07;;;;;;;8.23;6.47;;;;;18.30;101633.00;;;;5029675;28;20215;-82
2021/10/26 03:15:34;;;;;;;11.63;6.90;;;;;18.30;101631.00;;;;5029307;28;20196;-82
2021/10/26 03:18:02;;;;;;;9.45;8.05;;;;;18.30;101632.00;;;;5032538;28;20204;-81
2021/10/26 03:20:31;;;;;;;10.25;7.68;;;;;18.20;101633.00;;;;5037300;28;20942;-82
2021/10/26 03:22:58;;;;;;;11.23;8.10;;;;;18.20;101639.00;;;;5029248;28;20208;-82
2021/10/26 03:25:25;;;;;;;10.40;8.38;;;;;18.20;101634.00;;;;5029008;28;20185;-82
2021/10/26 03:27:53;;;;;;;11.38;8.68;;;;;18.20;101632.00;;;;5027207;28;20213;-82
2021/10/26 03:30:20;;;;;;;10.38;8.82;;;;;18.20;101629.00;;;;5028761;28;20212;-82
2021/10/26 03:32:48;;;;;;;11.38;9.00;;;;;18.20;101633.00;;;;5028249;28;20205;-82
2021/10/26 03:35:15;;;;;;;12.80;8.35;;;;;18.20;101628.00;;;;5028454;28;20192;-82
2021/10/26 03:37:44;;;;;;;10.25;8.07;;;;;18.10;101632.00;;;;5028161;28;20212;-83
2021/10/26 03:40:12;;;;;;;12.65;9.52;;;;;18.10;101627.00;;;;5027908;28;20553;-83
2021/10/26 03:42:40;;;;;;;15.52;9.55;;;;;18.10;101627.00;;;;5031713;28;20616;-82
2021/10/26 03:45:09;;;;;;;10.10;7.50;;;;;18.10;101624.00;;;;5035182;28;20200;-83
2021/10/26 03:47:39;;;;;;;11.23;8.27;;;;;18.00;101625.00;;;;5028953;28;20239;-82
2021/10/26 03:50:09;;;;;;;13.80;8.70;;;;;18.00;101625.00;;;;5051226;28;20599;-82
2021/10/26 03:52:36;;;;;;;11.38;8.20;;;;;18.10;101627.00;;;;5027743;28;20231;-82
2021/10/26 03:55:06;;;;;;;11.10;8.63;;;;;18.00;101623.00;;;;5036363;28;20200;-83
2021/10/26 03:57:34;;;;;;;13.60;8.68;;;;;18.00;101619.00;;;;5043775;28;20205;-83
2021/10/26 04:00:01;;;;;;;12.35;8.70;;;;;18.00;101632.00;;;;5028122;28;20196;-83
2021/10/26 04:02:30;;;;;;;11.55;8.57;;;;;18.00;101623.00;;;;5028041;28;20200;-83
2021/10/26 04:05:01;;;;;;;13.02;8.77;;;;;18.00;101628.00;;;;5027955;28;20627;-82
2021/10/26 04:07:29;;;;;;;13.98;8.82;;;;;18.00;101633.00;;;;5027894;28;20323;-83
2021/10/26 04:10:00;;;;;;;12.10;8.45;;;;;18.00;101633.00;;;;5027813;28;20196;-82
2021/10/26 04:12:28;;;;;;;13.60;7.80;;;;;18.00;101640.00;;;;5026850;28;20262;-83
2021/10/26 04:14:57;;;;;;;11.75;7.88;;;;;18.00;101646.00;;;;5028324;28;20204;-83
2021/10/26 04:17:27;;;;;;;11.40;8.43;;;;;18.00;101647.00;;;;5038255;28;20196;-83
2021/10/26 04:19:57;;;;;;;10.55;8.13;;;;;18.00;101643.00;;;;5030519;28;20231;-83
2021/10/26 04:22:24;;;;;;;13.10;9.35;;;;;18.00;101649.00;;;;5027772;28;20228;-83
2021/10/26 04:24:53;;;;;;;12.63;8.00;;;;;18.00;101647.00;;;;5033094;28;20192;-83
2021/10/26 04:27:20;;;;;;;14.55;8.82;;;;;18.00;101658.00;;;;5034548;28;20476;-82
2021/10/26 04:29:49;;;;;;;11.38;9.02;;;;;18.00;101653.00;;;;5035467;28;20223;-83
2021/10/26 04:32:17;;;;;;;14.15;9.23;;;;;18.00;101649.00;;;;5027969;28;20204;-83
2021/10/26 04:34:44;;;;;;;14.75;8.55;;;;;18.00;101652.00;;;;5035139;28;20228;-83
2021/10/26 04:37:12;;;;;;;12.55;7.25;;;;;18.00;101651.00;;;;5040048;28;20200;-83
2021/10/26 04:39:39;;;;;;;12.57;8.43;;;;;18.00;101668.00;;;;5031663;28;20200;-82
2021/10/26 04:42:09;;;;;;;14.85;9.55;;;;;18.00;101660.00;;;;5028435;28;20232;-81
2021/10/26 04:44:36;;;;;;;13.65;8.48;;;;;18.00;101655.00;;;;5027985;28;20197;-83
2021/10/26 04:47:05;;;;;;;14.45;8.75;;;;;17.90;101651.00;;;;5033539;28;20207;-82
2021/10/26 04:49:33;;;;;;;14.40;9.40;;;;;17.90;101657.00;;;;5031004;28;20281;-83
2021/10/26 04:52:01;;;;;;;12.73;8.95;;;;;17.90;101653.00;;;;5032306;28;20699;-82
2021/10/26 04:54:29;;;;;;;12.13;8.25;;;;;17.90;101662.00;;;;5032414;28;20211;-83
2021/10/26 04:56:57;;;;;;;17.48;9.25;;;;;17.90;101663.00;;;;5046746;28;20222;-80
2021/10/26 04:59:24;;;;;;;11.90;8.38;;;;;17.80;101662.00;;;;5062744;28;20192;-81
2021/10/26 05:01:51;;;;;;;13.52;8.60;;;;;17.80;101671.00;;;;5046035;28;20200;-81
2021/10/26 05:04:20;;;;;;;11.63;9.05;;;;;17.80;101669.00;;;;5042748;28;20223;-82
2021/10/26 05:06:47;;;;;;;10.38;7.22;;;;;17.80;101676.00;;;;5051586;28;20192;-82
2021/10/26 05:09:15;;;;;;;14.27;8.55;;;;;17.80;101675.00;;;;5062540;28;20229;-82
2021/10/26 05:11:42;;;;;;;13.80;8.18;;;;;17.80;101678.00;;;;5050473;28;20261;-82
2021/10/26 05:14:10;;;;;;;12.05;8.60;;;;;17.80;101671.00;;;;5043476;28;20211;-84
2021/10/26 05:16:37;;;;;;;13.07;8.15;;;;;17.80;101674.00;;;;5041989;28;20215;-81
2021/10/26 05:19:07;;;;;;;12.25;8.77;;;;;17.80;101669.00;;;;5043571;28;20193;-82
2021/10/26 05:21:38;;;;;;;12.80;8.05;;;;;17.80;101678.00;;;;5033757;28;20279;-82
2021/10/26 05:24:06;;;;;;;13.10;8.50;;;;;17.70;101676.00;;;;5032547;28;20224;-80
2021/10/26 05:26:35;;;;;;;12.60;8.68;;;;;17.70;101681.00;;;;5032436;28;20227;-79
2021/10/26 05:29:03;;;;;;;11.40;7.45;;;;;17.70;101686.00;;;;5043312;28;20227;-79
2021/10/26 05:31:31;;;;;;;9.40;6.80;;;;;17.70;101692.00;;;;5030905;28;20564;-81
2021/10/26 05:33:58;;;;;;;14.07;8.52;;;;;17.70;101688.00;;;;5028337;28;20223;-79
2021/10/26 05:36:25;;;;;;;11.50;8.27;;;;;17.70;101696.00;;;;5032260;28;20204;-79
2021/10/26 05:38:54;;;;;;;13.18;8.65;;;;;17.60;101700.00;;;;5027678;28;20227;-79
2021/10/26 05:41:21;;;;;;;10.52;7.68;;;;;17.60;101707.00;;;;5041392;28;20242;-79
2021/10/26 05:43:48;;;;;;;11.98;7.78;;;;;17.60;101711.00;;;;5041722;28;20211;-80
2021/10/26 05:46:16;;;;;;;12.45;8.15;;;;;17.60;101718.00;;;;5033570;28;20189;-80
2021/10/26 05:48:43;;;;;;;11.32;8.13;;;;;17.70;101719.00;;;;5037741;28;20227;-79
2021/10/26 05:51:10;;;;;;;11.55;7.97;;;;;17.60;101722.00;;;;5034852;28;20196;-80
2021/10/26 05:53:37;;;;;;;13.55;8.35;;;;;17.60;101716.00;;;;5031410;28;20211;-79
2021/10/26 05:56:06;;;;;;;13.85;8.73;;;;;17.60;101714.00;;;;5043677;28;20195;-80
2021/10/26 05:58:33;;;;;;;9.35;7.35;;;;;17.60;101730.00;;;;5049993;28;20289;-79
2021/10/26 06:01:01;;;;;;;9.40;7.43;;;;;17.60;101730.00;;;;5050539;28;20692;-79
2021/10/26 06:03:28;;;;;;;13.20;8.93;;;;;17.60;101728.00;;;;5050577;28;20278;-79
2021/10/26 06:05:57;;;;;;;10.90;7.32;;;;;17.60;101728.00;;;;5062608;28;20207;-80
2021/10/26 06:08:27;;;;;;;10.15;7.10;;;;;17.60;101734.00;;;;5050580;28;20220;-81
2021/10/26 06:10:58;;;;;;;9.60;6.97;;;;;17.60;101731.00;;;;5042420;28;20637;-79
2021/10/26 06:13:30;;;;;;;11.82;7.25;;;;;17.50;101731.00;;;;5030270;28;20258;-79
2021/10/26 06:15:57;;;;;;;8.18;6.13;;;;;17.50;101728.00;;;;5047901;28;20202;-80
2021/10/26 06:18:24;;;;;;;11.98;7.38;;;;;17.50;101726.00;;;;5049873;28;20633;-79
2021/10/26 06:20:52;;;;;;;8.35;6.50;;;;;17.50;101725.00;;;;5040791;28;20558;-79
2021/10/26 06:23:19;;;;;;;8.07;6.40;;;;;17.50;101725.00;;;;5038766;28;20704;-79
2021/10/26 06:25:46;;;;;;;10.27;7.43;;;;;17.50;101738.00;;;;5049876;28;20204;-79
2021/10/26 06:28:14;;;;;;;9.60;6.90;;;;;17.50;101736.00;;;;5039763;28;20220;-79
2021/10/26 06:30:44;;;;;;;8.85;6.53;;;;;17.50;101738.00;;;;5030160;28;20274;-79
2021/10/26 06:33:11;;;;;;;9.55;7.22;;;;;17.50;101738.00;;;;5029147;28;20290;-79
2021/10/26 06:35:39;;;;;;;11.73;7.55;;;;;17.50;101732.00;;;;5030307;28;20212;-80
2021/10/26 06:38:06;;;;;;;11.00;7.72;;;;;17.50;101729.00;;;;5030003;28;21026;-80
2021/10/26 06:40:33;;;;;;;9.95;7.35;;;;;17.40;101731.00;;;;5032937;28;20208;-79
2021/10/26 06:43:01;;;;;;;13.68;7.15;;;;;17.40;101737.00;;;;5029889;28;20200;-80
2021/10/26 06:45:29;;;;;;;10.93;7.25;;;;;17.40;101746.00;;;;5034762;28;20196;-80
2021/10/26 06:47:57;;;;;;;10.88;7.63;;;;;17.40;101746.00;;;;5029496;28;20670;-80
2021/10/26 06:50:25;;;;;;;12.10;7.63;;;;;17.40;101759.00;;;;5029430;28;20690;-80
2021/10/26 06:52:52;;;;;;;13.75;9.07;;;;;17.40;101759.00;;;;5030558;28;20732;-79
2021/10/26 06:55:19;;;;;;;11.77;7.47;;;;;17.40;101760.00;;;;5029705;28;20208;-80
2021/10/26 06:57:48;;;;;;;13.13;8.30;;;;;17.40;101760.00;;;;5029689;28;20566;-79
2021/10/26 07:00:17;;;;;;;13.80;7.93;;;;;17.30;101764.00;;;;5036940;28;20200;-80
2021/10/26 07:02:49;;;;;;;9.93;7.30;;;;;17.30;101766.00;;;;5036916;28;20287;-80
2021/10/26 07:05:19;;;;;;;13.85;8.60;;;;;17.30;101762.00;;;;5037575;28;20268;-80
2021/10/26 07:07:46;;;;;;;13.45;8.75;;;;;17.30;101770.00;;;;5040178;28;20542;-81
2021/10/26 07:10:14;;;;;;;13.02;9.18;;;;;17.30;101783.00;;;;5034772;28;20232;-81
2021/10/26 07:12:42;;;;;;;13.07;8.68;;;;;17.30;101793.00;;;;5038840;28;20204;-81
2021/10/26 07:15:34;;;;;;;10.45;7.32;;;;;17.20;101787.00;;;;5040761;28;20207;-81
2021/10/26 07:18:10;;;;;;;9.85;7.28;;;;;17.20;101784.00;;;;5049951;28;20199;-81
2021/10/26 07:20:51;;;;;;;10.52;7.45;;;;;17.20;101782.00;;;;5031183;28;20207;-80
2021/10/26 07:23:28;;;;;;;13.18;8.48;;;;;17.20;101776.00;;;;5030213;28;20633;-80
2021/10/26 07:25:55;;;;;;;11.02;7.65;;;;;17.30;101784.00;;;;5028484;28;20204;-81
2021/10/26 07:28:23;;;;;;;12.48;8.68;;;;;17.30;101786.00;;;;5030036;28;20211;-80
2021/10/26 07:30:50;;;;;;;11.77;7.88;;;;;17.30;101789.00;;;;5029598;28;20224;-80
2021/10/26 07:33:21;;;;;;;11.38;7.43;;;;;17.30;101787.00;;;;5036772;28;20208;-80
2021/10/26 07:35:53;;;;;;;12.40;7.93;;;;;17.30;101790.00;;;;5033235;28;20287;-80
2021/10/26 07:38:28;;;;;;;9.82;7.47;;;;;17.30;101798.00;;;;5037810;28;20188;-81
2021/10/26 07:40:56;;;;;;;9.88;7.65;;;;;17.30;101797.00;;;;5032099;28;20223;-81
2021/10/26 07:43:24;;;;;;;11.90;6.75;;;;;17.30;101803.00;;;;5035249;28;20254;-81
2021/10/26 07:45:51;;;;;;;10.63;7.65;;;;;17.30;101807.00;;;;5034315;28;20196;-81
2021/10/26 07:48:19;;;;;;;10.15;7.13;;;;;17.30;101797.00;;;;5034361;28;20211;-80
2021/10/26 07:50:47;;;;;;;7.55;6.70;;;;;17.30;101798.00;;;;5028335;28;20578;-81
2021/10/26 07:53:16;;;;;;;8.45;6.35;;;;;17.30;101804.00;;;;5029723;28;20200;-80
2021/10/26 07:55:46;;;;;;;10.23;6.60;;;;;17.30;101798.00;;;;5031286;28;20665;-80
2021/10/26 07:58:13;;;;;;;8.57;5.75;;;;;17.30;101788.00;;;;5033890;28;20518;-80
2021/10/26 08:00:40;;;;;;;8.48;5.45;;;;;17.40;101800.00;;;;5028551;28;20658;-81
2021/10/26 08:03:07;;;;;;;8.95;6.05;;;;;17.40;101806.00;;;;5031791;28;20196;-81
2021/10/26 08:05:35;;;;;;;8.55;6.00;;;;;17.40;101799.00;;;;5030799;28;20582;-81
2021/10/26 08:08:02;;;;;;;11.88;6.95;;;;;17.50;101797.00;;;;5030184;28;20192;-81
2021/10/26 08:10:30;;;;;;;9.32;5.28;;;;;17.50;101797.00;;;;5029451;28;20232;-81
2021/10/26 08:12:58;;;;;;;7.07;5.47;;;;;17.60;101793.00;;;;5034774;28;20196;-81
2021/10/26 08:15:26;;;;;;;8.68;6.13;;;;;17.70;101799.00;;;;5047670;28;20214;-81
2021/10/26 08:17:53;;;;;;;6.72;4.90;;;;;17.70;101804.00;;;;5040054;28;20599;-80
2021/10/26 08:20:20;;;;;;;8.32;5.90;;;;;17.70;101797.00;;;;5033971;28;20199;-80
2021/10/26 08:22:47;;;;;;;9.98;6.22;;;;;17.80;101793.00;;;;5027867;28;20208;-80
2021/10/26 08:25:19;;;;;;;8.73;6.03;;;;;17.80;101800.00;;;;5026963;28;20199;-81
2021/10/26 08:27:48;;;;;;;8.60;5.53;;;;;17.80;101794.00;;;;5046992;28;20212;-81
2021/10/26 08:30:18;;;;;;;6.32;4.90;;;;;17.90;101798.00;;;;5034850;28;20224;-80
2021/10/26 08:32:51;;;;;;;9.52;5.20;;;;;18.00;101794.00;;;;5038848;28;20609;-81
2021/10/26 08:35:26;;;;;;;7.60;5.45;;;;;18.00;101795.00;;;;5029712;28;20250;-80
2021/10/26 08:38:00;;;;;;;8.48;5.25;;;;;18.00;101806.00;;;;5039293;28;20203;-80
2021/10/26 08:40:29;;;;;;;9.75;5.18;;;;;18.10;101803.00;;;;5045115;28;20207;-80
2021/10/26 08:43:02;;;;;;;7.63;5.57;;;;;18.10;101797.00;;;;5045564;28;20192;-81
2021/10/26 08:45:31;;;;;;;8.30;6.25;;;;;18.20;101804.00;;;;5043662;28;20203;-81
2021/10/26 08:47:59;;;;;;;7.35;5.60;;;;;18.20;101798.00;;;;5037188;28;20573;-80
2021/10/26 08:50:30;;;;;;;11.50;7.15;;;;;18.20;101797.00;;;;5032564;28;20212;-79
2021/10/26 08:52:57;;;;;;;9.80;6.47;;;;;18.20;101797.00;;;;5037452;28;20215;-81
2021/10/26 08:55:25;;;;;;;10.18;6.63;;;;;18.30;101804.00;;;;5033588;28;20658;-81
2021/10/26 08:57:53;;;;;;;10.45;6.88;;;;;18.30;101795.00;;;;5043202;28;20192;-81
2021/10/26 09:00:23;;;;;;;11.55;7.28;;;;;18.30;101799.00;;;;5037599;28;20199;-80
2021/10/26 09:02:52;;;;;;;14.57;7.45;;;;;18.30;101799.00;;;;5031654;28;20203;-81
2021/10/26 09:05:23;;;;;;;12.88;7.70;;;;;18.30;101799.00;;;;5031862;28;20741;-80
2021/10/26 09:08:06;;;;;;;13.25;7.82;;;;;18.30;101793.00;;;;5028517;28;20204;-81
2021/10/26 09:10:34;;;;;;;12.20;8.38;;;;;18.40;101802.00;;;;5027117;28;20223;-81
2021/10/26 09:18:38;;;;;;;11.90;6.97;;;;;18.50;101820.00;;;;5027138;28;20215;-81
2021/10/26 09:21:06;;;;;;;11.38;7.78;;;;;18.50;101811.00;;;;5031446;28;20203;-80
2021/10/26 09:23:33;;;;;;;15.82;9.70;;;;;18.50;101814.00;;;;5042337;28;20483;-81
2021/10/26 09:26:01;;;;;;;15.18;9.38;;;;;18.50;101812.00;;;;5039986;28;20203;-81
2021/10/26 09:28:30;;;;;;;12.60;8.52;;;;;18.60;101812.00;;;;5033674;28;20207;-80
2021/10/26 09:31:05;;;;;;;14.73;8.98;;;;;18.50;101805.00;;;;5040577;28;20746;-80
2021/10/26 09:33:35;;;;;;;14.38;9.38;;;;;18.60;101819.00;;;;5037363;28;20195;-80
2021/10/26 09:36:22;;;;;;;12.18;8.23;;;;;18.50;101806.00;;;;5044694;28;20201;-80
2021/10/26 09:38:55;;;;;;;14.07;9.02;;;;;18.60;101821.00;;;;5049239;28;20223;-81
2021/10/26 09:41:22;;;;;;;14.60;10.10;;;;;18.60;101814.00;;;;5033458;28;20251;-81
2021/10/26 09:43:49;;;;;;;18.50;10.45;;;;;18.70;101817.00;;;;5035222;28;20199;-80
2021/10/26 09:46:23;;;;;;;15.82;10.82;;;;;18.60;101809.00;;;;5033137;28;20193;-80
2021/10/26 09:48:51;;;;;;;17.23;9.90;;;;;18.70;101813.00;;;;5032420;28;20300;-81
2021/10/26 09:51:21;;;;;;;18.83;10.45;;;;;18.60;101804.00;;;;5039402;28;20220;-81
2021/10/26 09:53:57;;;;;;;16.00;10.30;;;;;18.60;101807.00;;;;5034257;28;20231;-81
2021/10/26 09:56:24;;;;;;;14.48;10.23;;;;;18.70;101805.00;;;;5030355;28;20258;-81
2021/10/26 09:59:12;;;;;;;15.38;9.98;;;;;18.70;101814.00;;;;5029810;28;20259;-81
2021/10/26 10:01:54;;;;;;;13.10;8.13;;;;;18.70;101811.00;;;;5029773;28;20211;-81
2021/10/26 10:04:27;;;;;;;16.92;9.30;;;;;18.80;101812.00;;;;5034086;28;20220;-80
2021/10/26 10:06:55;;;;;;;18.13;8.88;;;;;18.80;101808.00;;;;5030090;28;20196;-81
2021/10/26 10:09:23;;;;;;;14.60;9.95;;;;;18.80;101817.00;;;;5035755;28;20204;-81
2021/10/26 10:11:59;;;;;;;15.02;9.50;;;;;18.80;101812.00;;;;5036128;28;20709;-81
2021/10/26 10:14:26;;;;;;;13.98;9.27;;;;;18.90;101811.00;;;;5029958;28;20212;-80
2021/10/26 10:16:56;;;;;;;15.25;10.23;;;;;18.90;101812.00;;;;5039506;28;20205;-79
2021/10/26 10:19:23;;;;;;;14.45;10.10;;;;;18.90;101824.00;;;;5042925;28;20631;-78
2021/10/26 10:21:51;;;;;;;16.95;10.23;;;;;18.90;101807.00;;;;5043628;28;20210;-79
2021/10/26 10:24:19;;;;;;;18.83;9.95;;;;;18.90;101819.00;;;;5034149;28;20212;-79
2021/10/26 10:26:51;;;;;;;16.52;9.90;;;;;18.90;101819.00;;;;5032461;28;20203;-80
2021/10/26 10:29:21;;;;;;;15.75;9.95;;;;;18.90;101813.00;;;;5042947;28;20199;-79
2021/10/26 10:31:50;;;;;;;14.07;9.73;;;;;18.90;101815.00;;;;5042651;28;20208;-80
2021/10/26 10:34:22;;;;;;;12.07;8.82;;;;;18.80;101817.00;;;;5030287;28;20212;-80
2021/10/26 10:36:53;;;;;;;17.67;9.32;;;;;18.80;101817.00;;;;5029388;28;20200;-80
2021/10/26 10:39:27;;;;;;;12.93;9.07;;;;;18.80;101813.00;;;;5033227;28;20192;-80
2021/10/26 10:42:23;;;;;;;11.85;9.30;;;;;18.70;101820.00;;;;5029267;28;20230;-79
2021/10/26 10:44:53;;;;;;;11.95;8.80;;;;;18.80;101809.00;;;;5047682;28;20198;-79
2021/10/26 10:47:39;;;;;;;15.90;8.65;;;;;18.70;101814.00;;;;5042691;28;20613;-78
2021/10/26 10:50:26;;;;;;;12.95;8.88;;;;;18.70;101808.00;;;;5052207;28;20628;-78
2021/10/26 10:53:09;;;;;;;13.63;8.88;;;;;18.70;101812.00;;;;5029890;28;20307;-79
2021/10/26 10:55:37;;;;;;;12.82;8.02;;;;;18.80;101807.00;;;;5036698;28;20199;-78
2021/10/26 10:58:29;;;;;;;11.45;8.32;;;;;18.70;101814.00;;;;5047273;28;20207;-78
2021/10/26 11:01:22;;;;;;;10.80;7.75;;;;;18.70;101815.00;;;;5030290;28;20283;-79
2021/10/26 11:03:50;;;;;;;9.65;7.82;;;;;18.80;101821.00;;;;5032455;28;20200;-79
2021/10/26 11:06:51;;;;;;;10.60;8.15;;;;;18.70;101818.00;;;;5046634;28;20219;-79
2021/10/26 11:09:42;;;;;;;14.90;8.13;;;;;18.70;101810.00;;;;5029514;28;20334;-79
2021/10/26 11:12:12;;;;;;;12.57;8.65;;;;;18.80;101810.00;;;;5039911;28;20677;-80
2021/10/26 11:14:48;;;;;;;11.50;7.22;;;;;18.80;101801.00;;;;5035455;28;20669;-79
2021/10/26 11:17:58;;;;;;;9.82;8.23;;;;;18.80;101797.00;;;;5038455;28;20214;-79
2021/10/26 11:20:48;;;;;;;9.05;6.95;;;;;18.80;101788.00;;;;5044809;28;20234;-79
2021/10/26 11:23:33;;;;;;;9.57;6.97;;;;;18.80;101791.00;;;;5046881;28;20199;-79
2021/10/26 11:26:05;;;;;;;9.27;7.63;;;;;19.00;101792.00;;;;5043667;28;20204;-79
2021/10/26 11:28:47;;;;;;;10.32;7.65;;;;;19.00;101791.00;;;;5038523;28;20208;-79
2021/10/26 11:31:23;;;;;;;9.65;7.25;;;;;19.10;101789.00;;;;5050456;28;20314;-80
2021/10/26 11:34:19;;;;;;;11.55;7.40;;;;;19.10;101783.00;;;;5051220;28;20206;-80
2021/10/26 11:36:46;;;;;;;9.85;6.70;;;;;19.30;101779.00;;;;5043524;28;20204;-79
2021/10/26 11:39:18;;;;;;;9.88;6.70;;;;;19.30;101781.00;;;;5032849;28;20207;-80
2021/10/26 11:41:47;;;;;;;8.25;6.80;;;;;19.40;101790.00;;;;5047881;28;20239;-79
2021/10/26 11:44:17;;;;;;;11.98;7.75;;;;;19.40;101792.00;;;;5033562;28;20204;-79
2021/10/26 11:46:46;;;;;;;9.48;7.22;;;;;19.50;101782.00;;;;5039899;28;20199;-80
2021/10/26 11:49:21;;;;;;;7.38;5.93;;;;;19.50;101768.00;;;;5046326;28;20221;-80
2021/10/26 11:51:51;;;;;;;8.80;6.32;;;;;19.50;101775.00;;;;5042444;28;20231;-81
2021/10/26 11:54:21;;;;;;;11.02;6.53;;;;;19.60;101771.00;;;;5038487;28;20196;-80
2021/10/26 11:56:52;;;;;;;10.55;7.57;;;;;19.50;101772.00;;;;5038121;28;20238;-80
2021/10/26 11:59:33;;;;;;;9.38;6.85;;;;;19.60;101770.00;;;;5045967;28;20196;-80
2021/10/26 12:02:10;;;;;;;6.50;5.30;;;;;19.50;101773.00;;;;5037278;28;20195;-80
2021/10/26 12:04:39;;;;;;;6.82;5.03;;;;;19.60;101774.00;;;;5029576;28;20235;-80
2021/10/26 12:07:08;;;;;;;10.98;6.07;;;;;19.60;101777.00;;;;5030130;28;20601;-79
2021/10/26 12:09:38;;;;;;;10.15;5.95;;;;;19.60;101771.00;;;;5030718;28;20211;-80
2021/10/26 12:12:13;;;;;;;9.15;5.80;;;;;19.60;101786.00;;;;5027871;28;20327;-80
2021/10/26 12:14:42;;;;;;;10.95;5.70;;;;;19.70;101781.00;;;;5037158;28;20227;-80
2021/10/26 12:17:18;;;;;;;10.48;6.20;;;;;19.70;101779.00;;;;5036119;28;20196;-80
2021/10/26 12:19:59;;;;;;;8.27;5.63;;;;;19.70;101780.00;;;;5028355;28;20199;-81